sensor_id;sensor_type;location;lat;lon;timestamp;temperature;humidity
49765;DHT22;35657;51.204;-4.130;2022-08-21T00:01:45;18.80;99.90
49765;DHT22;35657;51.204;-4.130;2022-08-21T00:04:12;18.70;99.90
49765;DHT22;35657;51.204;-4.130;2022-08-21T00:06:38;18.60;99.90
49765;DHT22;35657;51.204;-4.130;2022-08-21T00:09:06;18.50;99.90
49765;DHT22;35657;51.204;-4.130;2022-08-21T00:11:33;18.50;99.90
49765;DHT22;35657;51.204;-4.130;2022-08-21T00:14:00;18.50;99.90
49765;DHT22;35657;51.204;-4.130;2022-08-21T00:16:26;18.40;99.90
49765;DHT22;35657;51.204;-4.130;2022-08-21T00:18:52;18.40;99.90
49765;DHT22;35657;51.204;-4.130;2022-08-21T00:21:18;18.30;99.90
49765;DHT22;35657;51.204;-4.130;2022-08-21T00:23:43;18.40;99.90
49765;DHT22;35657;51.204;-4.130;2022-08-21T00:26:09;18.30;99.90
49765;DHT22;35657;51.204;-4.130;2022-08-21T00:28:35;18.30;99.90
49765;DHT22;35657;51.204;-4.130;2022-08-21T00:31:01;18.30;99.90
49765;DHT22;35657;51.204;-4.130;2022-08-21T00:33:29;18.30;99.90
49765;DHT22;35657;51.204;-4.130;2022-08-21T00:35:55;18.30;99.90
49765;DHT22;35657;51.204;-4.130;2022-08-21T00:38:21;18.30;99.90
49765;DHT22;35657;51.204;-4.130;2022-08-21T00:41:00;18.30;99.90
49765;DHT22;35657;51.204;-4.130;2022-08-21T00:43:29;18.40;99.90
49765;DHT22;35657;51.204;-4.130;2022-08-21T00:45:56;18.40;99.90
49765;DHT22;35657;51.204;-4.130;2022-08-21T00:48:23;18.40;99.90
49765;DHT22;35657;51.204;-4.130;2022-08-21T00:53:20;18.50;99.90
49765;DHT22;35657;51.204;-4.130;2022-08-21T00:55:46;18.50;99.90
49765;DHT22;35657;51.204;-4.130;2022-08-21T00:58:14;18.60;99.90
49765;DHT22;35657;51.204;-4.130;2022-08-21T01:00:43;18.60;99.90
49765;DHT22;35657;51.204;-4.130;2022-08-21T01:03:13;18.50;99.90
49765;DHT22;35657;51.204;-4.130;2022-08-21T01:05:40;18.30;99.90
49765;DHT22;35657;51.204;-4.130;2022-08-21T01:08:08;18.30;99.90
49765;DHT22;35657;51.204;-4.130;2022-08-21T01:10:35;18.30;99.90
49765;DHT22;35657;51.204;-4.130;2022-08-21T01:13:01;18.20;99.90
49765;DHT22;35657;51.204;-4.130;2022-08-21T01:15:32;18.20;99.90
49765;DHT22;35657;51.204;-4.130;2022-08-21T01:18:00;18.20;99.90
49765;DHT22;35657;51.204;-4.130;2022-08-21T01:20:26;18.20;99.90
49765;DHT22;35657;51.204;-4.130;2022-08-21T01:22:51;18.20;99.90
49765;DHT22;35657;51.204;-4.130;2022-08-21T01:25:18;18.10;99.90
49765;DHT22;35657;51.204;-4.130;2022-08-21T01:27:47;18.10;99.90
49765;DHT22;35657;51.204;-4.130;2022-08-21T01:30:18;18.10;99.90
49765;DHT22;35657;51.204;-4.130;2022-08-21T01:32:44;18.10;99.90
49765;DHT22;35657;51.204;-4.130;2022-08-21T01:35:13;18.10;99.90
49765;DHT22;35657;51.204;-4.130;2022-08-21T01:37:40;18.10;99.90
49765;DHT22;35657;51.204;-4.130;2022-08-21T01:40:07;18.10;99.90
49765;DHT22;35657;51.204;-4.130;2022-08-21T01:42:34;18.20;99.90
49765;DHT22;35657;51.204;-4.130;2022-08-21T01:45:00;18.30;99.90
49765;DHT22;35657;51.204;-4.130;2022-08-21T01:47:26;18.40;99.90
49765;DHT22;35657;51.204;-4.130;2022-08-21T01:49:52;18.50;99.90
49765;DHT22;35657;51.204;-4.130;2022-08-21T01:52:18;18.50;99.90
49765;DHT22;35657;51.204;-4.130;2022-08-21T01:54:45;18.50;99.90
49765;DHT22;35657;51.204;-4.130;2022-08-21T01:57:12;18.50;99.90
49765;DHT22;35657;51.204;-4.130;2022-08-21T01:59:39;18.40;99.90
49765;DHT22;35657;51.204;-4.130;2022-08-21T02:02:05;18.40;99.90
49765;DHT22;35657;51.204;-4.130;2022-08-21T02:04:32;18.30;99.90
49765;DHT22;35657;51.204;-4.130;2022-08-21T02:07:00;18.20;99.90
49765;DHT22;35657;51.204;-4.130;2022-08-21T02:09:26;18.20;99.90
49765;DHT22;35657;51.204;-4.130;2022-08-21T02:11:52;18.10;99.90
49765;DHT22;35657;51.204;-4.130;2022-08-21T02:14:18;18.10;99.90
49765;DHT22;35657;51.204;-4.130;2022-08-21T02:16:45;18.10;99.90
49765;DHT22;35657;51.204;-4.130;2022-08-21T02:19:12;18.10;99.90
49765;DHT22;35657;51.204;-4.130;2022-08-21T02:21:39;18.00;99.90
49765;DHT22;35657;51.204;-4.130;2022-08-21T02:24:05;18.00;99.90
49765;DHT22;35657;51.204;-4.130;2022-08-21T02:26:31;18.00;99.90
49765;DHT22;35657;51.204;-4.130;2022-08-21T02:28:57;18.00;99.90
49765;DHT22;35657;51.204;-4.130;2022-08-21T02:31:23;17.90;99.90
49765;DHT22;35657;51.204;-4.130;2022-08-21T02:33:50;18.00;99.90
49765;DHT22;35657;51.204;-4.130;2022-08-21T02:36:16;18.00;99.90
49765;DHT22;35657;51.204;-4.130;2022-08-21T02:38:42;17.90;99.90
49765;DHT22;35657;51.204;-4.130;2022-08-21T02:41:20;17.90;99.90
49765;DHT22;35657;51.204;-4.130;2022-08-21T02:43:47;18.00;99.90
49765;DHT22;35657;51.204;-4.130;2022-08-21T02:46:15;18.10;99.90
49765;DHT22;35657;51.204;-4.130;2022-08-21T02:48:43;18.20;99.90
49765;DHT22;35657;51.204;-4.130;2022-08-21T02:51:13;18.20;99.90
49765;DHT22;35657;51.204;-4.130;2022-08-21T02:53:39;18.20;99.90
49765;DHT22;35657;51.204;-4.130;2022-08-21T02:56:16;18.30;99.90
49765;DHT22;35657;51.204;-4.130;2022-08-21T02:58:45;18.30;99.90
49765;DHT22;35657;51.204;-4.130;2022-08-21T03:01:12;18.30;99.90
49765;DHT22;35657;51.204;-4.130;2022-08-21T03:03:40;18.10;99.90
49765;DHT22;35657;51.204;-4.130;2022-08-21T03:06:08;18.00;99.90
49765;DHT22;35657;51.204;-4.130;2022-08-21T03:08:35;18.00;99.90
49765;DHT22;35657;51.204;-4.130;2022-08-21T03:11:01;17.90;99.90
49765;DHT22;35657;51.204;-4.130;2022-08-21T03:13:28;17.90;99.90
49765;DHT22;35657;51.204;-4.130;2022-08-21T03:15:54;17.90;99.90
49765;DHT22;35657;51.204;-4.130;2022-08-21T03:18:20;17.80;99.90
49765;DHT22;35657;51.204;-4.130;2022-08-21T03:20:47;17.80;99.90
49765;DHT22;35657;51.204;-4.130;2022-08-21T03:23:14;17.80;99.90
49765;DHT22;35657;51.204;-4.130;2022-08-21T03:25:41;17.80;99.90
49765;DHT22;35657;51.204;-4.130;2022-08-21T03:28:12;17.80;99.90
49765;DHT22;35657;51.204;-4.130;2022-08-21T03:30:38;17.80;99.90
49765;DHT22;35657;51.204;-4.130;2022-08-21T03:33:04;17.70;99.90
49765;DHT22;35657;51.204;-4.130;2022-08-21T03:35:30;17.70;99.90
49765;DHT22;35657;51.204;-4.130;2022-08-21T03:37:56;17.80;99.90
49765;DHT22;35657;51.204;-4.130;2022-08-21T03:40:23;17.70;99.90
49765;DHT22;35657;51.204;-4.130;2022-08-21T03:42:50;17.80;99.90
49765;DHT22;35657;51.204;-4.130;2022-08-21T03:45:20;17.80;99.90
49765;DHT22;35657;51.204;-4.130;2022-08-21T03:50:22;17.90;99.90
49765;DHT22;35657;51.204;-4.130;2022-08-21T03:52:48;17.90;99.90
49765;DHT22;35657;51.204;-4.130;2022-08-21T03:55:14;17.90;99.90
49765;DHT22;35657;51.204;-4.130;2022-08-21T03:57:39;17.90;99.90
49765;DHT22;35657;51.204;-4.130;2022-08-21T04:00:07;17.90;99.90
49765;DHT22;35657;51.204;-4.130;2022-08-21T04:02:35;17.90;99.90
49765;DHT22;35657;51.204;-4.130;2022-08-21T04:05:01;17.80;99.90
49765;DHT22;35657;51.204;-4.130;2022-08-21T04:07:27;17.80;99.90
49765;DHT22;35657;51.204;-4.130;2022-08-21T04:09:52;17.70;99.90
49765;DHT22;35657;51.204;-4.130;2022-08-21T04:12:18;17.70;99.90
49765;DHT22;35657;51.204;-4.130;2022-08-21T04:14:44;17.70;99.90
49765;DHT22;35657;51.204;-4.130;2022-08-21T04:17:10;17.70;99.90
49765;DHT22;35657;51.204;-4.130;2022-08-21T04:19:36;17.70;99.90
49765;DHT22;35657;51.204;-4.130;2022-08-21T04:22:02;17.70;99.90
49765;DHT22;35657;51.204;-4.130;2022-08-21T04:24:28;17.70;99.90
49765;DHT22;35657;51.204;-4.130;2022-08-21T04:26:54;17.70;99.90
49765;DHT22;35657;51.204;-4.130;2022-08-21T04:29:20;17.70;99.90
49765;DHT22;35657;51.204;-4.130;2022-08-21T04:31:45;17.60;99.90
49765;DHT22;35657;51.204;-4.130;2022-08-21T04:34:11;17.60;99.90
49765;DHT22;35657;51.204;-4.130;2022-08-21T04:36:37;17.60;99.90
49765;DHT22;35657;51.204;-4.130;2022-08-21T04:39:03;17.60;99.90
49765;DHT22;35657;51.204;-4.130;2022-08-21T04:41:29;17.60;99.90
49765;DHT22;35657;51.204;-4.130;2022-08-21T04:43:55;17.70;99.90
49765;DHT22;35657;51.204;-4.130;2022-08-21T04:46:22;17.70;99.90
49765;DHT22;35657;51.204;-4.130;2022-08-21T04:48:48;17.80;99.90
49765;DHT22;35657;51.204;-4.130;2022-08-21T04:51:21;17.80;99.90
49765;DHT22;35657;51.204;-4.130;2022-08-21T04:53:59;17.80;99.90
49765;DHT22;35657;51.204;-4.130;2022-08-21T04:56:39;17.80;99.90
49765;DHT22;35657;51.204;-4.130;2022-08-21T04:59:13;17.90;99.90
49765;DHT22;35657;51.204;-4.130;2022-08-21T05:01:42;17.80;99.90
49765;DHT22;35657;51.204;-4.130;2022-08-21T05:04:11;17.80;99.90
49765;DHT22;35657;51.204;-4.130;2022-08-21T05:06:40;17.70;99.90
49765;DHT22;35657;51.204;-4.130;2022-08-21T05:09:07;17.70;99.90
49765;DHT22;35657;51.204;-4.130;2022-08-21T05:11:35;17.60;99.90
49765;DHT22;35657;51.204;-4.130;2022-08-21T05:14:01;17.60;99.90
49765;DHT22;35657;51.204;-4.130;2022-08-21T05:16:27;17.60;99.90
49765;DHT22;35657;51.204;-4.130;2022-08-21T05:18:53;17.60;99.90
49765;DHT22;35657;51.204;-4.130;2022-08-21T05:21:18;17.60;99.90
49765;DHT22;35657;51.204;-4.130;2022-08-21T05:23:44;17.60;99.90
49765;DHT22;35657;51.204;-4.130;2022-08-21T05:26:10;17.60;99.90
49765;DHT22;35657;51.204;-4.130;2022-08-21T05:28:36;17.60;99.90
49765;DHT22;35657;51.204;-4.130;2022-08-21T05:31:01;17.60;99.90
49765;DHT22;35657;51.204;-4.130;2022-08-21T05:33:27;17.60;99.90
49765;DHT22;35657;51.204;-4.130;2022-08-21T05:35:54;17.60;99.90
49765;DHT22;35657;51.204;-4.130;2022-08-21T05:38:24;17.60;99.90
49765;DHT22;35657;51.204;-4.130;2022-08-21T05:40:53;17.60;99.90
49765;DHT22;35657;51.204;-4.130;2022-08-21T05:43:18;17.60;99.90
49765;DHT22;35657;51.204;-4.130;2022-08-21T05:45:45;17.60;99.90
49765;DHT22;35657;51.204;-4.130;2022-08-21T05:48:22;17.70;99.90
49765;DHT22;35657;51.204;-4.130;2022-08-21T05:50:50;17.70;99.90
49765;DHT22;35657;51.204;-4.130;2022-08-21T05:53:17;17.70;99.90
49765;DHT22;35657;51.204;-4.130;2022-08-21T05:55:44;17.80;99.90
49765;DHT22;35657;51.204;-4.130;2022-08-21T05:58:11;17.80;99.90
49765;DHT22;35657;51.204;-4.130;2022-08-21T06:00:37;17.80;99.90
49765;DHT22;35657;51.204;-4.130;2022-08-21T06:03:03;17.80;99.90
49765;DHT22;35657;51.204;-4.130;2022-08-21T06:05:29;17.70;99.90
49765;DHT22;35657;51.204;-4.130;2022-08-21T06:07:56;17.60;99.90
49765;DHT22;35657;51.204;-4.130;2022-08-21T06:10:21;17.60;99.90
49765;DHT22;35657;51.204;-4.130;2022-08-21T06:12:52;17.60;99.90
49765;DHT22;35657;51.204;-4.130;2022-08-21T06:15:19;17.60;99.90
49765;DHT22;35657;51.204;-4.130;2022-08-21T06:17:44;17.60;99.90
49765;DHT22;35657;51.204;-4.130;2022-08-21T06:20:10;17.50;99.90
49765;DHT22;35657;51.204;-4.130;2022-08-21T06:22:36;17.50;99.90
49765;DHT22;35657;51.204;-4.130;2022-08-21T06:25:02;17.60;99.90
49765;DHT22;35657;51.204;-4.130;2022-08-21T06:27:27;17.60;99.90
49765;DHT22;35657;51.204;-4.130;2022-08-21T06:29:53;17.60;99.90
49765;DHT22;35657;51.204;-4.130;2022-08-21T06:32:19;17.60;99.90
49765;DHT22;35657;51.204;-4.130;2022-08-21T06:34:45;17.60;99.90
49765;DHT22;35657;51.204;-4.130;2022-08-21T06:37:11;17.50;99.90
49765;DHT22;35657;51.204;-4.130;2022-08-21T06:39:36;17.50;99.90
49765;DHT22;35657;51.204;-4.130;2022-08-21T06:42:02;17.50;99.90
49765;DHT22;35657;51.204;-4.130;2022-08-21T06:44:29;17.60;99.90
49765;DHT22;35657;51.204;-4.130;2022-08-21T06:46:55;17.70;99.90
49765;DHT22;35657;51.204;-4.130;2022-08-21T06:49:22;17.80;99.90
49765;DHT22;35657;51.204;-4.130;2022-08-21T06:51:48;17.90;99.90
49765;DHT22;35657;51.204;-4.130;2022-08-21T06:54:14;17.90;99.90
49765;DHT22;35657;51.204;-4.130;2022-08-21T06:56:40;17.80;99.90
49765;DHT22;35657;51.204;-4.130;2022-08-21T06:59:06;17.80;99.90
49765;DHT22;35657;51.204;-4.130;2022-08-21T07:01:32;17.90;99.90
49765;DHT22;35657;51.204;-4.130;2022-08-21T07:03:58;17.90;99.90
49765;DHT22;35657;51.204;-4.130;2022-08-21T07:06:24;17.90;99.90
49765;DHT22;35657;51.204;-4.130;2022-08-21T07:08:50;17.80;99.90
49765;DHT22;35657;51.204;-4.130;2022-08-21T07:11:21;17.80;99.90
49765;DHT22;35657;51.204;-4.130;2022-08-21T07:13:47;17.80;99.90
49765;DHT22;35657;51.204;-4.130;2022-08-21T07:16:14;17.80;99.90
49765;DHT22;35657;51.204;-4.130;2022-08-21T07:18:39;17.80;99.90
49765;DHT22;35657;51.204;-4.130;2022-08-21T07:21:06;17.80;99.90
49765;DHT22;35657;51.204;-4.130;2022-08-21T07:23:38;17.90;99.90
49765;DHT22;35657;51.204;-4.130;2022-08-21T07:26:04;17.90;99.90
49765;DHT22;35657;51.204;-4.130;2022-08-21T07:28:30;17.90;99.90
49765;DHT22;35657;51.204;-4.130;2022-08-21T07:30:58;17.90;99.90
49765;DHT22;35657;51.204;-4.130;2022-08-21T07:33:27;18.00;99.90
49765;DHT22;35657;51.204;-4.130;2022-08-21T07:35:53;18.00;99.90
49765;DHT22;35657;51.204;-4.130;2022-08-21T07:38:20;18.10;99.90
49765;DHT22;35657;51.204;-4.130;2022-08-21T07:40:47;18.10;99.90
49765;DHT22;35657;51.204;-4.130;2022-08-21T07:43:13;18.20;99.90
49765;DHT22;35657;51.204;-4.130;2022-08-21T07:45:41;18.30;99.90
49765;DHT22;35657;51.204;-4.130;2022-08-21T07:48:06;18.50;99.90
49765;DHT22;35657;51.204;-4.130;2022-08-21T07:50:32;18.20;99.90
49765;DHT22;35657;51.204;-4.130;2022-08-21T07:52:58;18.10;99.90
49765;DHT22;35657;51.204;-4.130;2022-08-21T07:55:24;18.10;99.90
49765;DHT22;35657;51.204;-4.130;2022-08-21T07:57:50;18.00;99.90
49765;DHT22;35657;51.204;-4.130;2022-08-21T08:00:18;18.00;99.90
49765;DHT22;35657;51.204;-4.130;2022-08-21T08:02:47;18.00;99.90
49765;DHT22;35657;51.204;-4.130;2022-08-21T08:05:16;18.10;99.90
49765;DHT22;35657;51.204;-4.130;2022-08-21T08:07:43;18.10;99.90
49765;DHT22;35657;51.204;-4.130;2022-08-21T08:10:09;18.10;99.90
49765;DHT22;35657;51.204;-4.130;2022-08-21T08:12:37;18.10;99.90
49765;DHT22;35657;51.204;-4.130;2022-08-21T08:15:04;18.20;99.90
49765;DHT22;35657;51.204;-4.130;2022-08-21T08:17:31;18.30;99.90
49765;DHT22;35657;51.204;-4.130;2022-08-21T08:19:58;18.30;99.90
49765;DHT22;35657;51.204;-4.130;2022-08-21T08:22:26;18.30;99.90
49765;DHT22;35657;51.204;-4.130;2022-08-21T08:24:53;18.40;99.90
49765;DHT22;35657;51.204;-4.130;2022-08-21T08:27:19;18.50;99.90
49765;DHT22;35657;51.204;-4.130;2022-08-21T08:29:46;18.50;99.90
49765;DHT22;35657;51.204;-4.130;2022-08-21T08:32:12;18.60;99.90
49765;DHT22;35657;51.204;-4.130;2022-08-21T08:34:38;18.70;99.90
49765;DHT22;35657;51.204;-4.130;2022-08-21T08:37:05;18.70;99.90
49765;DHT22;35657;51.204;-4.130;2022-08-21T08:39:32;18.80;99.90
49765;DHT22;35657;51.204;-4.130;2022-08-21T08:44:47;18.90;99.90
49765;DHT22;35657;51.204;-4.130;2022-08-21T08:47:16;18.90;99.90
49765;DHT22;35657;51.204;-4.130;2022-08-21T08:49:53;19.00;99.90
49765;DHT22;35657;51.204;-4.130;2022-08-21T08:53:06;18.90;99.90
49765;DHT22;35657;51.204;-4.130;2022-08-21T08:55:34;18.90;99.90
49765;DHT22;35657;51.204;-4.130;2022-08-21T08:58:00;18.90;99.90
49765;DHT22;35657;51.204;-4.130;2022-08-21T09:00:28;19.00;99.90
49765;DHT22;35657;51.204;-4.130;2022-08-21T09:02:59;18.90;99.90
49765;DHT22;35657;51.204;-4.130;2022-08-21T09:05:32;18.90;99.90
49765;DHT22;35657;51.204;-4.130;2022-08-21T09:11:04;18.90;99.90
49765;DHT22;35657;51.204;-4.130;2022-08-21T09:22:37;18.90;99.90
49765;DHT22;35657;51.204;-4.130;2022-08-21T09:25:19;19.10;99.90
49765;DHT22;35657;51.204;-4.130;2022-08-21T09:27:46;19.20;99.90
49765;DHT22;35657;51.204;-4.130;2022-08-21T09:30:12;19.20;99.90
49765;DHT22;35657;51.204;-4.130;2022-08-21T09:32:39;19.40;99.90
49765;DHT22;35657;51.204;-4.130;2022-08-21T09:35:12;19.40;99.90
49765;DHT22;35657;51.204;-4.130;2022-08-21T09:38:05;19.30;99.90
49765;DHT22;35657;51.204;-4.130;2022-08-21T09:41:06;19.30;99.90
49765;DHT22;35657;51.204;-4.130;2022-08-21T09:43:26;19.60;99.90
49765;DHT22;35657;51.204;-4.130;2022-08-21T09:46:05;19.90;99.90
49765;DHT22;35657;51.204;-4.130;2022-08-21T09:48:45;20.20;99.90
49765;DHT22;35657;51.204;-4.130;2022-08-21T09:51:15;20.40;99.90
49765;DHT22;35657;51.204;-4.130;2022-08-21T09:53:45;20.30;99.90
49765;DHT22;35657;51.204;-4.130;2022-08-21T09:56:51;20.40;99.90
49765;DHT22;35657;51.204;-4.130;2022-08-21T09:59:36;20.40;99.90
49765;DHT22;35657;51.204;-4.130;2022-08-21T10:02:35;20.50;99.90
49765;DHT22;35657;51.204;-4.130;2022-08-21T10:05:15;20.40;99.90
49765;DHT22;35657;51.204;-4.130;2022-08-21T10:07:41;20.40;99.90
49765;DHT22;35657;51.204;-4.130;2022-08-21T10:15:17;20.50;99.90
49765;DHT22;35657;51.204;-4.130;2022-08-21T10:21:05;20.50;99.90
49765;DHT22;35657;51.204;-4.130;2022-08-21T10:40:40;20.70;99.90
49765;DHT22;35657;51.204;-4.130;2022-08-21T10:48:37;21.40;99.90
49765;DHT22;35657;51.204;-4.130;2022-08-21T10:51:10;21.50;99.90
49765;DHT22;35657;51.204;-4.130;2022-08-21T11:03:45;21.30;99.90
49765;DHT22;35657;51.204;-4.130;2022-08-21T11:06:15;21.40;99.90
49765;DHT22;35657;51.204;-4.130;2022-08-21T11:08:46;21.50;99.90
49765;DHT22;35657;51.204;-4.130;2022-08-21T11:21:32;21.30;99.90
49765;DHT22;35657;51.204;-4.130;2022-08-21T11:24:07;21.30;99.90
49765;DHT22;35657;51.204;-4.130;2022-08-21T11:27:03;21.40;99.90
49765;DHT22;35657;51.204;-4.130;2022-08-21T11:29:37;21.70;99.90
49765;DHT22;35657;51.204;-4.130;2022-08-21T11:35:50;22.10;99.90
49765;DHT22;35657;51.204;-4.130;2022-08-21T11:41:02;22.60;99.90
49765;DHT22;35657;51.204;-4.130;2022-08-21T11:46:00;22.20;99.90
49765;DHT22;35657;51.204;-4.130;2022-08-21T11:51:13;22.80;99.90
49765;DHT22;35657;51.204;-4.130;2022-08-21T11:56:43;23.60;99.90
49765;DHT22;35657;51.204;-4.130;2022-08-21T11:59:36;23.70;99.90
49765;DHT22;35657;51.204;-4.130;2022-08-21T12:02:12;24.10;99.90
49765;DHT22;35657;51.204;-4.130;2022-08-21T12:04:45;24.00;99.90
49765;DHT22;35657;51.204;-4.130;2022-08-21T12:09:59;23.80;99.90
49765;DHT22;35657;51.204;-4.130;2022-08-21T12:12:29;23.40;99.90
49765;DHT22;35657;51.204;-4.130;2022-08-21T12:18:18;23.70;99.90
49765;DHT22;35657;51.204;-4.130;2022-08-21T12:23:49;23.50;99.90
49765;DHT22;35657;51.204;-4.130;2022-08-21T12:37:13;23.30;99.90
49765;DHT22;35657;51.204;-4.130;2022-08-21T12:39:44;23.00;99.90
49765;DHT22;35657;51.204;-4.130;2022-08-21T12:44:54;23.20;99.90
49765;DHT22;35657;51.204;-4.130;2022-08-21T12:47:34;23.40;99.90
49765;DHT22;35657;51.204;-4.130;2022-08-21T12:50:21;23.40;99.90
49765;DHT22;35657;51.204;-4.130;2022-08-21T12:55:41;23.50;99.90
49765;DHT22;35657;51.204;-4.130;2022-08-21T12:58:20;23.20;99.90
49765;DHT22;35657;51.204;-4.130;2022-08-21T13:01:02;23.40;99.90
49765;DHT22;35657;51.204;-4.130;2022-08-21T13:03:29;23.50;99.90
49765;DHT22;35657;51.204;-4.130;2022-08-21T13:05:58;23.40;99.90
49765;DHT22;35657;51.204;-4.130;2022-08-21T13:08:26;23.30;99.90
49765;DHT22;35657;51.204;-4.130;2022-08-21T13:11:02;23.00;99.90
49765;DHT22;35657;51.204;-4.130;2022-08-21T13:13:29;22.50;99.90
49765;DHT22;35657;51.204;-4.130;2022-08-21T13:16:04;22.00;99.90
49765;DHT22;35657;51.204;-4.130;2022-08-21T13:18:34;21.90;99.90
49765;DHT22;35657;51.204;-4.130;2022-08-21T13:23:34;21.60;99.90
49765;DHT22;35657;51.204;-4.130;2022-08-21T13:25:59;21.70;99.90
49765;DHT22;35657;51.204;-4.130;2022-08-21T13:28:35;22.10;99.90
49765;DHT22;35657;51.204;-4.130;2022-08-21T13:31:07;21.90;99.90
49765;DHT22;35657;51.204;-4.130;2022-08-21T13:33:37;21.80;99.90
49765;DHT22;35657;51.204;-4.130;2022-08-21T13:36:09;22.30;99.90
49765;DHT22;35657;51.204;-4.130;2022-08-21T13:38:36;22.60;99.90
49765;DHT22;35657;51.204;-4.130;2022-08-21T13:41:26;22.70;99.90
49765;DHT22;35657;51.204;-4.130;2022-08-21T13:46:39;23.30;99.90
49765;DHT22;35657;51.204;-4.130;2022-08-21T13:49:06;22.90;99.90
49765;DHT22;35657;51.204;-4.130;2022-08-21T13:51:34;23.00;99.90
49765;DHT22;35657;51.204;-4.130;2022-08-21T13:54:00;22.90;99.90
49765;DHT22;35657;51.204;-4.130;2022-08-21T13:56:30;23.10;99.90
49765;DHT22;35657;51.204;-4.130;2022-08-21T13:58:57;22.80;99.90
49765;DHT22;35657;51.204;-4.130;2022-08-21T14:01:36;22.80;99.90
49765;DHT22;35657;51.204;-4.130;2022-08-21T14:04:22;23.10;99.90
49765;DHT22;35657;51.204;-4.130;2022-08-21T14:06:50;23.10;99.90
49765;DHT22;35657;51.204;-4.130;2022-08-21T14:11:53;22.90;99.90
49765;DHT22;35657;51.204;-4.130;2022-08-21T14:14:23;23.00;99.90
49765;DHT22;35657;51.204;-4.130;2022-08-21T14:16:55;22.90;99.90
49765;DHT22;35657;51.204;-4.130;2022-08-21T14:21:47;22.00;99.90
49765;DHT22;35657;51.204;-4.130;2022-08-21T14:24:28;21.80;99.90
49765;DHT22;35657;51.204;-4.130;2022-08-21T14:27:01;21.50;99.90
49765;DHT22;35657;51.204;-4.130;2022-08-21T14:29:31;21.40;99.90
49765;DHT22;35657;51.204;-4.130;2022-08-21T14:31:59;21.10;99.90
49765;DHT22;35657;51.204;-4.130;2022-08-21T14:34:27;21.20;99.90
49765;DHT22;35657;51.204;-4.130;2022-08-21T14:36:55;21.10;99.90
49765;DHT22;35657;51.204;-4.130;2022-08-21T14:39:21;21.00;99.90
49765;DHT22;35657;51.204;-4.130;2022-08-21T14:41:47;20.90;99.90
49765;DHT22;35657;51.204;-4.130;2022-08-21T14:44:15;21.20;99.90
49765;DHT22;35657;51.204;-4.130;2022-08-21T14:46:42;21.00;99.90
49765;DHT22;35657;51.204;-4.130;2022-08-21T14:49:07;21.50;99.90
49765;DHT22;35657;51.204;-4.130;2022-08-21T14:51:33;21.40;99.90
49765;DHT22;35657;51.204;-4.130;2022-08-21T14:53:59;21.20;99.90
49765;DHT22;35657;51.204;-4.130;2022-08-21T14:56:25;21.20;99.90
49765;DHT22;35657;51.204;-4.130;2022-08-21T14:58:52;21.30;99.90
49765;DHT22;35657;51.204;-4.130;2022-08-21T15:01:20;21.40;99.90
49765;DHT22;35657;51.204;-4.130;2022-08-21T15:03:46;21.50;99.90
49765;DHT22;35657;51.204;-4.130;2022-08-21T15:06:14;21.30;99.90
49765;DHT22;35657;51.204;-4.130;2022-08-21T15:08:40;21.20;99.90
49765;DHT22;35657;51.204;-4.130;2022-08-21T15:11:06;21.50;99.90
49765;DHT22;35657;51.204;-4.130;2022-08-21T15:13:34;21.60;99.90
49765;DHT22;35657;51.204;-4.130;2022-08-21T15:16:00;21.80;99.90
49765;DHT22;35657;51.204;-4.130;2022-08-21T15:18:28;22.00;99.90
49765;DHT22;35657;51.204;-4.130;2022-08-21T15:20:54;22.20;99.90
49765;DHT22;35657;51.204;-4.130;2022-08-21T15:23:20;22.30;99.90
49765;DHT22;35657;51.204;-4.130;2022-08-21T15:25:47;22.30;99.90
49765;DHT22;35657;51.204;-4.130;2022-08-21T15:28:14;22.30;99.90
49765;DHT22;35657;51.204;-4.130;2022-08-21T15:30:42;22.40;99.90
49765;DHT22;35657;51.204;-4.130;2022-08-21T15:33:08;22.30;99.90
49765;DHT22;35657;51.204;-4.130;2022-08-21T15:35:35;22.20;99.90
49765;DHT22;35657;51.204;-4.130;2022-08-21T15:38:01;22.30;99.90
49765;DHT22;35657;51.204;-4.130;2022-08-21T15:40:27;22.40;99.90
49765;DHT22;35657;51.204;-4.130;2022-08-21T15:42:57;22.30;99.90
49765;DHT22;35657;51.204;-4.130;2022-08-21T15:45:23;22.40;99.90
49765;DHT22;35657;51.204;-4.130;2022-08-21T15:47:50;22.40;99.90
49765;DHT22;35657;51.204;-4.130;2022-08-21T15:50:16;22.40;99.90
49765;DHT22;35657;51.204;-4.130;2022-08-21T15:52:42;22.40;99.90
49765;DHT22;35657;51.204;-4.130;2022-08-21T15:55:08;22.40;99.90
49765;DHT22;35657;51.204;-4.130;2022-08-21T15:57:49;22.30;99.90
49765;DHT22;35657;51.204;-4.130;2022-08-21T16:00:22;22.00;99.90
49765;DHT22;35657;51.204;-4.130;2022-08-21T16:02:52;21.90;99.90
49765;DHT22;35657;51.204;-4.130;2022-08-21T16:05:21;22.10;99.90
49765;DHT22;35657;51.204;-4.130;2022-08-21T16:07:49;22.20;99.90
49765;DHT22;35657;51.204;-4.130;2022-08-21T16:10:17;22.20;99.90
49765;DHT22;35657;51.204;-4.130;2022-08-21T16:12:47;22.20;99.90
49765;DHT22;35657;51.204;-4.130;2022-08-21T16:15:14;22.20;99.90
49765;DHT22;35657;51.204;-4.130;2022-08-21T16:17:42;22.20;99.90
49765;DHT22;35657;51.204;-4.130;2022-08-21T16:20:14;21.80;99.90
49765;DHT22;35657;51.204;-4.130;2022-08-21T16:22:40;21.70;99.90
49765;DHT22;35657;51.204;-4.130;2022-08-21T16:25:15;21.90;99.90
49765;DHT22;35657;51.204;-4.130;2022-08-21T16:27:43;21.90;99.90
49765;DHT22;35657;51.204;-4.130;2022-08-21T16:30:11;21.70;99.90
49765;DHT22;35657;51.204;-4.130;2022-08-21T16:32:37;21.50;99.90
49765;DHT22;35657;51.204;-4.130;2022-08-21T16:35:03;21.40;99.90
49765;DHT22;35657;51.204;-4.130;2022-08-21T16:37:29;21.70;99.90
49765;DHT22;35657;51.204;-4.130;2022-08-21T16:39:55;21.90;99.90
49765;DHT22;35657;51.204;-4.130;2022-08-21T16:42:23;22.00;99.90
49765;DHT22;35657;51.204;-4.130;2022-08-21T16:44:50;22.00;99.90
49765;DHT22;35657;51.204;-4.130;2022-08-21T16:47:16;22.10;99.90
49765;DHT22;35657;51.204;-4.130;2022-08-21T16:49:42;22.20;99.90
49765;DHT22;35657;51.204;-4.130;2022-08-21T16:52:11;22.20;99.90
49765;DHT22;35657;51.204;-4.130;2022-08-21T16:54:45;22.30;99.90
49765;DHT22;35657;51.204;-4.130;2022-08-21T16:57:11;22.20;99.90
49765;DHT22;35657;51.204;-4.130;2022-08-21T16:59:38;22.20;99.90
49765;DHT22;35657;51.204;-4.130;2022-08-21T17:02:04;22.10;99.90
49765;DHT22;35657;51.204;-4.130;2022-08-21T17:04:30;21.80;99.90
49765;DHT22;35657;51.204;-4.130;2022-08-21T17:06:56;21.80;99.90
49765;DHT22;35657;51.204;-4.130;2022-08-21T17:09:22;21.30;99.90
49765;DHT22;35657;51.204;-4.130;2022-08-21T17:11:50;21.20;99.90
49765;DHT22;35657;51.204;-4.130;2022-08-21T17:14:22;21.10;99.90
49765;DHT22;35657;51.204;-4.130;2022-08-21T17:16:53;21.20;99.90
49765;DHT22;35657;51.204;-4.130;2022-08-21T17:19:21;20.90;99.90
49765;DHT22;35657;51.204;-4.130;2022-08-21T17:21:47;21.00;99.90
49765;DHT22;35657;51.204;-4.130;2022-08-21T17:24:13;21.00;99.90
49765;DHT22;35657;51.204;-4.130;2022-08-21T17:26:43;21.00;99.90